Aérodrome :
LOGIN :

S'inscrire | Disclaimer

   EN    FR    IT 

 










Légende :    VFR   VFR Marginal   IFR   IFR Intensif   IFR Très Intensif
Visi : 
Plafond : 
>= 8 km
>= 3000ft
5 à 8 km
1000 à 3000 ft
1500m à 5 km
500 à 1000 ft
800 à 1500m
200 à 500 ft
< 800m
< 200 ft
Symboles :   Orages  Brouillard  Fortes neiges  Fortes précipitations  Vent > 20 kt
SIGMETs :   Divers  Orages  Givrage  Turbulence  Onde Orograph.  Cendres Volcan.






- Altitude de l'aérodrome : 194 ft


EBCV - Chièvres

DERNIER METAR :
  • 012213Z AUTO 08005KT 5000 NCD 04/03 Q1029 WHT

METARs EXPIRÉS :
  • 012155Z AUTO 07004KT 4500 BR NCD 04/02 Q1029 GRN
  • 012146Z AUTO 07005KT 4900 NCD 04/02 Q1029 GRN
  • 012125Z AUTO 07004KT 5000 NCD 04/03 Q1029 WHT
  • 012055Z AUTO 06003KT 5000 NCD 04/03 Q1029 WHT
  • 012025Z AUTO 05003KT 5000 NCD 05/03 Q1029 WHT
  • 011955Z AUTO 03005KT 5000 NCD 05/03 Q1029 WHT
  • 011933Z AUTO 02004KT 4700 BR NCD 05/03 Q1029 GRN
  • 011925Z AUTO 02005KT 5000 BR NCD 06/04 Q1029 WHT

TAF TAF EBCV
Valide du 01 à 19h jusqu'au 02 à 07h UTC


011541Z 0119/0207 06006KT 9999 SKC
BECMG 0123/0201 12004KT BY EBWM



MET'MAP, la Météo Aéronautique d'un coup d'oeil ! - Copyright ORBIFLY Décembre 2007 - Disclaimer

ORBIFLY MET'MAP TEAM :

Programmation & Développement : Alexandra Zaïnal
Sur une idée originale de : Baudouin d'Aumeries
Assistance à la programmation : Marc-Olivier Méhu
Soutien technique & logistique : Manuel Goepfert

Contact : metmap@orbifly.com




SOURCES & CREDITS :

   NOAA